Wind From: 20-09-2018 14:00 Until: 20:00 warning for: Wind Level: Yellow info button
suomi:
Tuulivaroitus maa-alueille: Lounaistuuli on voimakasta, tuulen nopeus puuskissa 15 m/s.

svenska:
Vindvarning för landområden: är den sydvästliga vinden kraftigt, i vindbyarna 15 m/s.

english:
Wind warning for land areas: , strong winds from southwest may bring strong gusts of 15 m/s. 


Thunder radar more information blitzortung!


Löydät sääaseman tiedot myös:

European Weather Network

Finland Weather Exchange

Weather Underground

AWEKAS



Weather Underground säähistoriasivu

Päivittäin yhteenveto Kesäkuu 17, 2017 Yksiköt:  Englantilaiset    Metriset   Molemmat
« Edellinen Päivä
Seuraava Päivä »
Päivittäin Viikoittain Kuukausittain Vuosittain Mukautettu
  Korkea: Matala: Keskiarvo:
Lämpötila: TemperatureC °F 8.7 °F 17.2 °F
Kastepiste: DewpointC °F 6.2 °F 10.3 °F
Kosteus: Humidity % 34 % 66 %
Tuulen nopeus: WindSpeedKMH mph 0.0 mph 3.2 mph
Tuulenpuuska: WindSpeedGustKMH mph - -
Tuuli:- - SSW
Ilmanpaine: PressurehPa in 1008.4 in -
Sade: 0.0 in    
Historical Graphs
 
 
Taulukkotiedot Kesäkuu 17, 2017
Aika Lämpötila Kastepiste Ilmanpaine Tuuli Tuulen nopeus Tuulenpuuska Kosteus Sademäärä (tunneittain)
TemperatureC °F DewpointC °F PressurehPa in Calm     Humidity % HourlyPrecipMM in
00:00 15.2 °F 13.4 °F 1008.4 in Calm   3.2 mph 89 % 0.0 in
00:15 14.9 °F 13.1 °F 1008.4 in Calm   1.6 mph 89 % 0.0 in
00:30 14.6 °F 12.2 °F 1008.7 in Calm   4.8 mph 86 % 0.0 in
00:45 14.3 °F 12.1 °F 1008.7 in Calm     87 % 0.0 in
01:00 13.7 °F 11.6 °F 1008.7 in Calm     87 % 0.0 in
01:15 13.3 °F 11.2 °F 1009.0 in Calm   3.2 mph 87 % 0.0 in
01:30 13.1 °F 10.9 °F 1009.0 in Calm   1.6 mph 87 % 0.0 in
01:45 12.7 °F 10.6 °F 1009.0 in Calm   3.2 mph 87 % 0.0 in
02:00 12.3 °F 10.2 °F 1009.0 in Calm     87 % 0.0 in
02:15 11.9 °F 10.0 °F 1009.0 in Calm     88 % 0.0 in
02:30 11.6 °F 9.8 °F 1009.0 in Calm     89 % 0.0 in
02:45 11.3 °F 9.7 °F 1009.4 in Calm     90 % 0.0 in
03:00 10.9 °F 9.5 °F 1009.4 in Calm     91 % 0.0 in
03:15 10.4 °F 9.2 °F 1009.0 in Calm     92 % 0.0 in
03:30 10.1 °F 8.8 °F 1009.4 in Calm     92 % 0.0 in
03:45 9.8 °F 8.8 °F 1009.4 in Calm     93 % 0.0 in
04:00 9.6 °F 8.5 °F 1009.4 in Calm     93 % 0.0 in
04:15 9.2 °F 8.1 °F 1009.4 in Calm     93 % 0.0 in
04:30 8.8 °F 7.8 °F 1009.7 in Calm     93 % 0.0 in
04:45 8.7 °F 7.8 °F 1009.7 in Calm     94 % 0.0 in
05:00 8.8 °F 8.0 °F 1009.7 in Calm     95 % 0.0 in
05:15 9.2 °F 8.4 °F 1009.7 in Calm     95 % 0.0 in
05:30 9.2 °F 8.5 °F 1009.7 in Calm     95 % 0.0 in
05:45 9.7 °F 9.1 °F 1009.7 in Calm     96 % 0.0 in
06:00 10.3 °F 9.7 °F 1009.7 in Calm   1.6 mph 96 % 0.0 in
06:15 10.8 °F 10.0 °F 1009.7 in Calm     95 % 0.0 in
06:30 11.3 °F 10.3 °F 1010.0 in Calm     94 % 0.0 in
06:45 11.4 °F 10.2 °F 1010.0 in Calm   4.8 mph 92 % 0.0 in
07:00 11.6 °F 10.1 °F 1010.0 in Calm   1.6 mph 91 % 0.0 in
07:15 12.3 °F 10.2 °F 1010.0 in Calm   6.4 mph 87 % 0.0 in
07:30 13.3 °F 10.3 °F 1010.0 in SSW 1.6 mph 8.0 mph 82 % 0.0 in
07:45 13.8 °F 10.4 °F 1010.0 in SSW 1.6 mph 6.4 mph 80 % 0.0 in
08:00 14.4 °F 10.8 °F 1010.0 in SSE 1.6 mph 6.4 mph 79 % 0.0 in
08:15 15.2 °F 11.0 °F 1010.0 in SW 3.2 mph 9.7 mph 76 % 0.0 in
08:30 15.9 °F 11.1 °F 1010.0 in SSW 1.6 mph 6.4 mph 73 % 0.0 in
08:45 16.7 °F 11.4 °F 1010.0 in SW 1.6 mph 8.0 mph 71 % 0.0 in
09:00 17.3 °F 10.7 °F 1010.0 in SSW 3.2 mph 11.3 mph 65 % 0.0 in
09:15 17.9 °F 11.0 °F 1010.0 in SSW 3.2 mph 9.7 mph 64 % 0.0 in
09:30 18.3 °F 11.4 °F 1010.0 in SSW 3.2 mph 12.9 mph 64 % 0.0 in
09:45 18.9 °F 10.8 °F 1010.0 in SSW 1.6 mph 9.7 mph 59 % 0.0 in
10:00 19.3 °F 10.3 °F 1010.4 in SSW 3.2 mph 9.7 mph 56 % 0.0 in
10:15 19.7 °F 9.6 °F 1010.4 in SSW 4.8 mph 12.9 mph 52 % 0.0 in
10:30 20.0 °F 10.1 °F 1010.4 in SSW 4.8 mph 14.5 mph 53 % 0.0 in
10:45 20.2 °F 10.0 °F 1010.4 in SSW 4.8 mph 14.5 mph 52 % 0.0 in
11:00 20.8 °F 9.0 °F 1010.4 in SSW 3.2 mph 16.1 mph 47 % 0.0 in
11:15 20.8 °F 9.0 °F 1010.4 in SSW 8.0 mph 16.1 mph 47 % 0.0 in
11:30 21.4 °F 9.6 °F 1010.4 in SSW 4.8 mph 17.7 mph 47 % 0.0 in
11:45 21.5 °F 8.7 °F 1010.4 in SSW 4.8 mph 12.9 mph 44 % 0.0 in
12:00 21.8 °F 9.6 °F 1010.4 in SSW 4.8 mph 14.5 mph 46 % 0.0 in
12:15 22.2 °F 9.0 °F 1010.4 in SSW 4.8 mph 16.1 mph 43 % 0.0 in
12:30 22.1 °F 8.5 °F 1010.7 in SSW 6.4 mph 14.5 mph 42 % 0.0 in
12:45 22.2 °F 9.7 °F 1010.4 in SSW 3.2 mph 11.3 mph 45 % 0.0 in
13:00 22.0 °F 9.8 °F 1010.4 in SSW 4.8 mph 16.1 mph 46 % 0.0 in
13:15 22.1 °F 8.6 °F 1010.4 in SW 4.8 mph 16.1 mph 42 % 0.0 in
13:30 22.2 °F 8.3 °F 1010.4 in SSW 6.4 mph 20.9 mph 41 % 0.0 in
13:45 22.4 °F 6.2 °F 1010.4 in SSW 4.8 mph 16.1 mph 35 % 0.0 in
14:00 23.1 °F 6.3 °F 1010.4 in SW 3.2 mph 11.3 mph 34 % 0.0 in
14:15 22.8 °F 8.1 °F 1010.4 in SSW 4.8 mph 16.1 mph 39 % 0.0 in
14:30 23.1 °F 9.1 °F 1010.4 in SSW 4.8 mph 16.1 mph 41 % 0.0 in
14:45 22.7 °F 8.4 °F 1010.4 in SW 4.8 mph 17.7 mph 40 % 0.0 in
15:00 22.3 °F 9.8 °F 1010.4 in SSW 8.0 mph 17.7 mph 45 % 0.0 in
15:15 22.4 °F 9.2 °F 1010.4 in SW 6.4 mph 19.3 mph 43 % 0.0 in
15:30 22.4 °F 8.5 °F 1010.4 in SSW 6.4 mph 17.7 mph 41 % 0.0 in
15:45 22.5 °F 10.0 °F 1010.4 in SSW 8.0 mph 24.1 mph 45 % 0.0 in
16:00 22.9 °F 9.6 °F 1010.4 in SSW 6.4 mph 19.3 mph 43 % 0.0 in
16:15 23.0 °F 10.4 °F 1010.4 in SW 6.4 mph 16.1 mph 45 % 0.0 in
16:30 22.9 °F 8.6 °F 1010.4 in WSW 4.8 mph 17.7 mph 40 % 0.0 in
16:45 23.2 °F 9.5 °F 1010.4 in WSW 4.8 mph 14.5 mph 42 % 0.0 in
17:00 23.3 °F 9.7 °F 1010.4 in SSW 4.8 mph 17.7 mph 42 % 0.0 in
17:15 23.1 °F 9.8 °F 1010.4 in SSW 6.4 mph 20.9 mph 43 % 0.0 in
17:30 23.2 °F 11.0 °F 1010.4 in SW 4.8 mph 14.5 mph 46 % 0.0 in
17:45 22.7 °F 11.1 °F 1010.4 in SSW 6.4 mph 19.3 mph 48 % 0.0 in
18:00 22.0 °F 11.4 °F 1010.4 in SW 4.8 mph 17.7 mph 51 % 0.0 in
18:15 21.9 °F 11.9 °F 1010.4 in SSW 6.4 mph 19.3 mph 53 % 0.0 in
18:30 21.6 °F 11.9 °F 1010.4 in SSW 4.8 mph 16.1 mph 54 % 0.0 in
18:45 21.7 °F 12.2 °F 1010.4 in SW 3.2 mph 12.9 mph 55 % 0.0 in
19:00 21.1 °F 12.3 °F 1010.4 in SSW 6.4 mph 14.5 mph 57 % 0.0 in
19:15 21.1 °F 12.5 °F 1010.4 in SSW 4.8 mph 16.1 mph 58 % 0.0 in
19:30 20.8 °F 12.2 °F 1010.4 in SW 4.8 mph 12.9 mph 58 % 0.0 in
19:45 20.8 °F 12.5 °F 1010.4 in SW 6.4 mph 20.9 mph 59 % 0.0 in
20:00 20.7 °F 12.6 °F 1010.0 in SSW 4.8 mph 19.3 mph 60 % 0.0 in
20:15 20.5 °F 12.7 °F 1010.0 in SW 3.2 mph 9.7 mph 61 % 0.0 in
20:30 20.0 °F 12.7 °F 1010.0 in SSW 8.0 mph 17.7 mph 63 % 0.0 in
20:45 19.8 °F 12.8 °F 1010.0 in SSW 6.4 mph 19.3 mph 64 % 0.0 in
21:00 19.4 °F 12.9 °F 1010.0 in SSW 8.0 mph 17.7 mph 66 % 0.0 in
21:15 19.2 °F 12.9 °F 1010.0 in SSW 3.2 mph 12.9 mph 67 % 0.0 in
21:30 18.9 °F 12.9 °F 1010.0 in SSW 6.4 mph 17.7 mph 68 % 0.0 in
21:45 18.5 °F 12.7 °F 1010.0 in SSW 8.0 mph 14.5 mph 69 % 0.0 in
22:00 18.2 °F 12.8 °F 1010.0 in SSW 6.4 mph 14.5 mph 71 % 0.0 in
22:15 17.8 °F 12.7 °F 1010.0 in SSW 3.2 mph 14.5 mph 72 % 0.0 in
22:30 17.3 °F 12.7 °F 1010.0 in SSW 6.4 mph 24.1 mph 74 % 0.0 in
22:45 16.9 °F 12.7 °F 1010.0 in SSW 4.8 mph 11.3 mph 76 % 0.0 in
23:00 16.6 °F 12.5 °F 1010.0 in SSW 3.2 mph 12.9 mph 77 % 0.0 in
23:15 16.2 °F 12.6 °F 1010.0 in SW 3.2 mph 9.7 mph 79 % 0.0 in
23:30 15.8 °F 12.4 °F 1010.0 in SW 3.2 mph 8.0 mph 80 % 0.0 in
23:45 15.4 °F 12.1 °F 1010.0 in SW 3.2 mph 9.7 mph 81 % 0.0 in
Esan sääasema
Terveisin Weather Underground - 2.75 mb

Alkuperäinen skripti  Jim McMurry - jmcmurry@mwt.net Sovitettu myös templatelle  Wim van der Kuil - Leuven-Template.eu

Laitteet joita käytämme:

Sääasema
Davis VP2

Sääasemaohjelma
Cumulus

Sääaseman tietokone
Asus EeePC

Palveluntarjoaja
Suncomet

Davis VP2

Cumulus

Asus EeePC

Suncomet